sensor_id;sensor_type;location;lat;lon;timestamp;pressure;altitude;pressure_sealevel;temperature;humidity
29385;BME280;16367;48.736;9.218;2023-02-23T00:00:14;-23446.91;;;8.81;100.00
29385;BME280;16367;48.736;9.218;2023-02-23T00:02:21;-23448.19;;;8.85;100.00
29385;BME280;16367;48.736;9.218;2023-02-23T00:04:25;-23449.28;;;8.88;100.00
29385;BME280;16367;48.736;9.218;2023-02-23T00:06:30;-23448.97;;;8.87;100.00
29385;BME280;16367;48.736;9.218;2023-02-23T00:08:33;-23449.78;;;8.90;100.00
29385;BME280;16367;48.736;9.218;2023-02-23T00:10:37;-23451.19;;;8.94;100.00
29385;BME280;16367;48.736;9.218;2023-02-23T00:12:40;-23451.34;;;8.95;100.00
29385;BME280;16367;48.736;9.218;2023-02-23T00:14:43;-23450.88;;;8.93;100.00
29385;BME280;16367;48.736;9.218;2023-02-23T00:16:46;-23450.56;;;8.92;100.00
29385;BME280;16367;48.736;9.218;2023-02-23T00:18:50;-23452.16;;;8.97;100.00
29385;BME280;16367;48.736;9.218;2023-02-23T00:20:56;-23450.56;;;8.92;100.00
29385;BME280;16367;48.736;9.218;2023-02-23T00:22:59;-23451.66;;;8.96;100.00
29385;BME280;16367;48.736;9.218;2023-02-23T00:25:01;-23448.66;;;8.86;100.00
29385;BME280;16367;48.736;9.218;2023-02-23T00:27:09;-23446.13;;;8.78;100.00
29385;BME280;16367;48.736;9.218;2023-02-23T00:29:20;-23445.00;;;8.75;100.00
29385;BME280;16367;48.736;9.218;2023-02-23T00:31:25;-23445.66;;;8.77;100.00
29385;BME280;16367;48.736;9.218;2023-02-23T00:33:28;-23443.41;;;8.70;100.00
29385;BME280;16367;48.736;9.218;2023-02-23T00:35:31;-23444.69;;;8.74;100.00
29385;BME280;16367;48.736;9.218;2023-02-23T00:37:36;-23444.69;;;8.74;100.00
29385;BME280;16367;48.736;9.218;2023-02-23T00:39:39;-23445.00;;;8.75;100.00
29385;BME280;16367;48.736;9.218;2023-02-23T00:41:42;-23441.84;;;8.65;100.00
29385;BME280;16367;48.736;9.218;2023-02-23T00:43:45;-23439.59;;;8.58;100.00
29385;BME280;16367;48.736;9.218;2023-02-23T00:45:48;-23441.19;;;8.63;100.00
29385;BME280;16367;48.736;9.218;2023-02-23T00:47:51;-23437.72;;;8.52;100.00
29385;BME280;16367;48.736;9.218;2023-02-23T00:49:54;-23437.41;;;8.51;100.00
29385;BME280;16367;48.736;9.218;2023-02-23T00:51:58;-23432.94;;;8.37;100.00
29385;BME280;16367;48.736;9.218;2023-02-23T00:54:02;-23432.63;;;8.36;100.00
29385;BME280;16367;48.736;9.218;2023-02-23T00:56:06;-23434.06;;;8.40;100.00
29385;BME280;16367;48.736;9.218;2023-02-23T00:58:09;-23434.53;;;8.42;100.00
29385;BME280;16367;48.736;9.218;2023-02-23T01:00:14;-23435.16;;;8.44;100.00
29385;BME280;16367;48.736;9.218;2023-02-23T01:02:20;-23431.19;;;8.31;100.00
29385;BME280;16367;48.736;9.218;2023-02-23T01:04:23;-23427.84;;;8.20;100.00
29385;BME280;16367;48.736;9.218;2023-02-23T01:06:26;-23427.22;;;8.18;100.00
29385;BME280;16367;48.736;9.218;2023-02-23T01:08:28;-23427.22;;;8.18;100.00
29385;BME280;16367;48.736;9.218;2023-02-23T01:10:32;-23425.31;;;8.12;100.00
29385;BME280;16367;48.736;9.218;2023-02-23T01:12:37;-23421.34;;;8.00;100.00
29385;BME280;16367;48.736;9.218;2023-02-23T01:14:39;-23423.72;;;8.07;100.00
29385;BME280;16367;48.736;9.218;2023-02-23T01:16:42;-23425.00;;;8.11;100.00
29385;BME280;16367;48.736;9.218;2023-02-23T01:18:45;-23422.47;;;8.03;100.00
29385;BME280;16367;48.736;9.218;2023-02-23T01:20:49;-23425.00;;;8.11;100.00
29385;BME280;16367;48.736;9.218;2023-02-23T01:22:52;-23424.38;;;8.09;100.00
29385;BME280;16367;48.736;9.218;2023-02-23T01:24:55;-23424.84;;;8.11;100.00
29385;BME280;16367;48.736;9.218;2023-02-23T01:26:59;-23423.88;;;8.08;100.00
29385;BME280;16367;48.736;9.218;2023-02-23T01:29:04;-23421.03;;;7.99;100.00
29385;BME280;16367;48.736;9.218;2023-02-23T01:31:09;-23423.09;;;8.05;100.00
29385;BME280;16367;48.736;9.218;2023-02-23T01:33:12;-23422.16;;;8.02;100.00
29385;BME280;16367;48.736;9.218;2023-02-23T01:35:14;-23425.97;;;8.14;100.00
29385;BME280;16367;48.736;9.218;2023-02-23T01:37:17;-23425.00;;;8.11;100.00
29385;BME280;16367;48.736;9.218;2023-02-23T01:39:20;-23422.16;;;8.02;100.00
29385;BME280;16367;48.736;9.218;2023-02-23T01:41:23;-23424.06;;;8.08;100.00
29385;BME280;16367;48.736;9.218;2023-02-23T01:43:28;-23424.38;;;8.09;100.00
29385;BME280;16367;48.736;9.218;2023-02-23T01:45:33;-23423.09;;;8.05;100.00
29385;BME280;16367;48.736;9.218;2023-02-23T01:47:36;-23425.00;;;8.11;100.00
29385;BME280;16367;48.736;9.218;2023-02-23T01:49:39;-23425.31;;;8.12;100.00
29385;BME280;16367;48.736;9.218;2023-02-23T01:51:45;-23428.19;;;8.21;100.00
29385;BME280;16367;48.736;9.218;2023-02-23T01:53:55;-23422.94;;;8.05;100.00
29385;BME280;16367;48.736;9.218;2023-02-23T01:56:02;-23423.09;;;8.05;100.00
29385;BME280;16367;48.736;9.218;2023-02-23T01:58:14;-23423.56;;;8.07;100.00
29385;BME280;16367;48.736;9.218;2023-02-23T02:00:22;-23423.72;;;8.07;100.00
29385;BME280;16367;48.736;9.218;2023-02-23T02:02:27;-23424.38;;;8.09;100.00
29385;BME280;16367;48.736;9.218;2023-02-23T02:04:35;-23425.00;;;8.11;100.00
29385;BME280;16367;48.736;9.218;2023-02-23T02:06:47;-23423.41;;;8.06;100.00
29385;BME280;16367;48.736;9.218;2023-02-23T02:08:55;-23419.28;;;7.93;100.00
29385;BME280;16367;48.736;9.218;2023-02-23T02:10:59;-23423.25;;;8.06;100.00
29385;BME280;16367;48.736;9.218;2023-02-23T02:13:01;-23426.75;;;8.17;100.00
29385;BME280;16367;48.736;9.218;2023-02-23T02:15:07;-23425.47;;;8.13;100.00
29385;BME280;16367;48.736;9.218;2023-02-23T02:17:27;-23424.69;;;8.10;100.00
29385;BME280;16367;48.736;9.218;2023-02-23T02:19:56;-23424.22;;;8.09;100.00
29385;BME280;16367;48.736;9.218;2023-02-23T02:22:22;-23418.97;;;7.92;100.00
29385;BME280;16367;48.736;9.218;2023-02-23T02:25:01;-23417.69;;;7.88;100.00
29385;BME280;16367;48.736;9.218;2023-02-23T02:27:22;-23420.25;;;7.96;100.00
29385;BME280;16367;48.736;9.218;2023-02-23T02:30:02;-23414.22;;;7.77;100.00
29385;BME280;16367;48.736;9.218;2023-02-23T02:32:33;-23416.28;;;7.84;100.00
29385;BME280;16367;48.736;9.218;2023-02-23T02:35:00;-23423.41;;;8.06;100.00
29385;BME280;16367;48.736;9.218;2023-02-23T02:37:31;-23425.97;;;8.14;100.00
29385;BME280;16367;48.736;9.218;2023-02-23T02:39:43;-23427.06;;;8.18;100.00
29385;BME280;16367;48.736;9.218;2023-02-23T02:41:59;-23421.81;;;8.01;100.00
29385;BME280;16367;48.736;9.218;2023-02-23T02:44:10;-23418.34;;;7.90;100.00
29385;BME280;16367;48.736;9.218;2023-02-23T02:46:20;-23419.94;;;7.95;100.00
29385;BME280;16367;48.736;9.218;2023-02-23T02:48:32;-23418.66;;;7.91;100.00
29385;BME280;16367;48.736;9.218;2023-02-23T02:50:42;-23417.38;;;7.87;100.00
29385;BME280;16367;48.736;9.218;2023-02-23T02:52:53;-23419.94;;;7.95;100.00
29385;BME280;16367;48.736;9.218;2023-02-23T02:55:01;-23413.09;;;7.74;100.00
29385;BME280;16367;48.736;9.218;2023-02-23T02:57:10;-23416.28;;;7.84;100.00
29385;BME280;16367;48.736;9.218;2023-02-23T02:59:16;-23418.97;;;7.92;100.00
29385;BME280;16367;48.736;9.218;2023-02-23T03:01:37;-23413.56;;;7.75;100.00
29385;BME280;16367;48.736;9.218;2023-02-23T03:03:58;-23410.56;;;7.66;100.00
29385;BME280;16367;48.736;9.218;2023-02-23T03:06:20;-23408.16;;;7.58;100.00
29385;BME280;16367;48.736;9.218;2023-02-23T03:08:47;-23411.34;;;7.68;100.00
29385;BME280;16367;48.736;9.218;2023-02-23T03:11:10;-23408.16;;;7.58;100.00
29385;BME280;16367;48.736;9.218;2023-02-23T03:13:38;-23405.94;;;7.51;100.00
29385;BME280;16367;48.736;9.218;2023-02-23T03:16:12;-23405.94;;;7.51;100.00
29385;BME280;16367;48.736;9.218;2023-02-23T03:18:47;-23405.78;;;7.50;100.00
29385;BME280;16367;48.736;9.218;2023-02-23T03:21:14;-23405.94;;;7.51;100.00
29385;BME280;16367;48.736;9.218;2023-02-23T03:23:41;-23406.75;;;7.53;100.00
29385;BME280;16367;48.736;9.218;2023-02-23T03:26:09;-23405.94;;;7.51;100.00
29385;BME280;16367;48.736;9.218;2023-02-23T03:28:34;-23407.53;;;7.56;100.00
29385;BME280;16367;48.736;9.218;2023-02-23T03:31:03;-23407.22;;;7.55;100.00
29385;BME280;16367;48.736;9.218;2023-02-23T03:33:31;-23408.00;;;7.58;100.00
29385;BME280;16367;48.736;9.218;2023-02-23T03:35:56;-23407.53;;;7.56;100.00
29385;BME280;16367;48.736;9.218;2023-02-23T03:38:22;-23408.50;;;7.59;100.00
29385;BME280;16367;48.736;9.218;2023-02-23T03:40:48;-23408.34;;;7.59;100.00
29385;BME280;16367;48.736;9.218;2023-02-23T03:43:15;-23408.50;;;7.59;100.00
29385;BME280;16367;48.736;9.218;2023-02-23T03:45:37;-23408.66;;;7.60;100.00
29385;BME280;16367;48.736;9.218;2023-02-23T03:47:59;-23409.28;;;7.62;100.00
29385;BME280;16367;48.736;9.218;2023-02-23T03:50:24;-23410.41;;;7.65;100.00
29385;BME280;16367;48.736;9.218;2023-02-23T03:52:50;-23409.75;;;7.63;100.00
29385;BME280;16367;48.736;9.218;2023-02-23T03:55:16;-23415.16;;;7.80;100.00
29385;BME280;16367;48.736;9.218;2023-02-23T03:57:37;-23410.06;;;7.64;100.00
29385;BME280;16367;48.736;9.218;2023-02-23T04:00:05;-23410.41;;;7.65;100.00
29385;BME280;16367;48.736;9.218;2023-02-23T04:02:27;-23411.97;;;7.70;100.00
29385;BME280;16367;48.736;9.218;2023-02-23T04:04:50;-23412.31;;;7.71;100.00
29385;BME280;16367;48.736;9.218;2023-02-23T04:07:16;-23409.75;;;7.63;100.00
29385;BME280;16367;48.736;9.218;2023-02-23T04:09:37;-23411.19;;;7.68;100.00
29385;BME280;16367;48.736;9.218;2023-02-23T04:12:03;-23410.72;;;7.66;100.00
29385;BME280;16367;48.736;9.218;2023-02-23T04:14:29;-23413.09;;;7.74;100.00
29385;BME280;16367;48.736;9.218;2023-02-23T04:16:33;-23414.53;;;7.78;100.00
29385;BME280;16367;48.736;9.218;2023-02-23T04:18:37;-23413.72;;;7.76;100.00
29385;BME280;16367;48.736;9.218;2023-02-23T04:20:40;-23412.78;;;7.73;100.00
29385;BME280;16367;48.736;9.218;2023-02-23T04:22:43;-23412.31;;;7.71;100.00
29385;BME280;16367;48.736;9.218;2023-02-23T04:24:46;-23412.94;;;7.73;100.00
29385;BME280;16367;48.736;9.218;2023-02-23T04:26:48;-23413.56;;;7.75;100.00
29385;BME280;16367;48.736;9.218;2023-02-23T04:28:51;-23410.25;;;7.65;100.00
29385;BME280;16367;48.736;9.218;2023-02-23T04:30:54;-23410.72;;;7.66;100.00
29385;BME280;16367;48.736;9.218;2023-02-23T04:32:58;-23411.66;;;7.69;100.00
29385;BME280;16367;48.736;9.218;2023-02-23T04:35:00;-23408.16;;;7.58;100.00
29385;BME280;16367;48.736;9.218;2023-02-23T04:37:03;-23406.75;;;7.53;100.00
29385;BME280;16367;48.736;9.218;2023-02-23T04:39:06;-23406.28;;;7.52;100.00
29385;BME280;16367;48.736;9.218;2023-02-23T04:41:09;-23406.28;;;7.52;100.00
29385;BME280;16367;48.736;9.218;2023-02-23T04:43:11;-23407.69;;;7.57;100.00
29385;BME280;16367;48.736;9.218;2023-02-23T04:45:15;-23409.75;;;7.63;100.00
29385;BME280;16367;48.736;9.218;2023-02-23T04:47:17;-23408.66;;;7.60;100.00
29385;BME280;16367;48.736;9.218;2023-02-23T04:49:21;-23407.53;;;7.56;100.00
29385;BME280;16367;48.736;9.218;2023-02-23T04:51:24;-23407.53;;;7.56;100.00
29385;BME280;16367;48.736;9.218;2023-02-23T04:53:31;-23408.81;;;7.60;100.00
29385;BME280;16367;48.736;9.218;2023-02-23T04:55:34;-23406.91;;;7.54;100.00
29385;BME280;16367;48.736;9.218;2023-02-23T04:57:36;-19411.34;;;7.54;100.00
29385;BME280;16367;48.736;9.218;2023-02-23T04:59:39;-16031.94;;;7.60;100.00
29385;BME280;16367;48.736;9.218;2023-02-23T05:01:43;-15067.66;;;7.57;100.00
29385;BME280;16367;48.736;9.218;2023-02-23T05:03:46;-13461.81;;;7.61;100.00
29385;BME280;16367;48.736;9.218;2023-02-23T05:05:50;-16353.31;;;7.61;100.00
29385;BME280;16367;48.736;9.218;2023-02-23T05:07:53;-17316.00;;;7.58;100.00
29385;BME280;16367;48.736;9.218;2023-02-23T05:09:56;-17637.50;;;7.60;100.00
29385;BME280;16367;48.736;9.218;2023-02-23T05:11:58;-18631.09;;;7.62;100.00
29385;BME280;16367;48.736;9.218;2023-02-23T05:14:01;-23411.50;;;7.69;100.00
29385;BME280;16367;48.736;9.218;2023-02-23T05:16:06;-23411.50;;;7.69;100.00
29385;BME280;16367;48.736;9.218;2023-02-23T05:18:08;-23411.03;;;7.67;100.00
29385;BME280;16367;48.736;9.218;2023-02-23T05:20:12;-23411.50;;;7.69;100.00
29385;BME280;16367;48.736;9.218;2023-02-23T05:22:16;-23411.97;;;7.70;100.00
29385;BME280;16367;48.736;9.218;2023-02-23T05:24:19;-23411.19;;;7.68;100.00
29385;BME280;16367;48.736;9.218;2023-02-23T05:26:22;-23411.34;;;7.68;100.00
29385;BME280;16367;48.736;9.218;2023-02-23T05:28:25;-23411.19;;;7.68;100.00
29385;BME280;16367;48.736;9.218;2023-02-23T05:30:28;-23412.13;;;7.71;100.00
29385;BME280;16367;48.736;9.218;2023-02-23T05:32:30;-23413.41;;;7.75;100.00
29385;BME280;16367;48.736;9.218;2023-02-23T05:34:33;-23411.34;;;7.68;100.00
29385;BME280;16367;48.736;9.218;2023-02-23T05:36:37;-23415.47;;;7.81;100.00
29385;BME280;16367;48.736;9.218;2023-02-23T05:38:41;-23411.97;;;7.70;100.00
29385;BME280;16367;48.736;9.218;2023-02-23T05:40:44;-23414.22;;;7.77;100.00
29385;BME280;16367;48.736;9.218;2023-02-23T05:42:47;-23412.31;;;7.71;100.00
29385;BME280;16367;48.736;9.218;2023-02-23T05:44:50;-23411.03;;;7.67;100.00
29385;BME280;16367;48.736;9.218;2023-02-23T05:46:53;-23412.63;;;7.72;100.00
29385;BME280;16367;48.736;9.218;2023-02-23T05:48:56;-23413.09;;;7.74;100.00
29385;BME280;16367;48.736;9.218;2023-02-23T05:51:01;-23412.31;;;7.71;100.00
29385;BME280;16367;48.736;9.218;2023-02-23T05:53:04;-23415.00;;;7.80;100.00
29385;BME280;16367;48.736;9.218;2023-02-23T05:55:09;-23415.63;;;7.82;100.00
29385;BME280;16367;48.736;9.218;2023-02-23T05:57:12;-23414.22;;;7.77;100.00
29385;BME280;16367;48.736;9.218;2023-02-23T05:59:16;-23415.97;;;7.83;100.00
29385;BME280;16367;48.736;9.218;2023-02-23T06:01:19;-23417.69;;;7.88;100.00
29385;BME280;16367;48.736;9.218;2023-02-23T06:03:22;-23416.75;;;7.85;100.00
29385;BME280;16367;48.736;9.218;2023-02-23T06:05:25;-23416.09;;;7.83;100.00
29385;BME280;16367;48.736;9.218;2023-02-23T06:07:28;-23417.06;;;7.86;100.00
29385;BME280;16367;48.736;9.218;2023-02-23T06:09:31;-23416.44;;;7.84;100.00
29385;BME280;16367;48.736;9.218;2023-02-23T06:11:35;-23416.91;;;7.86;100.00
29385;BME280;16367;48.736;9.218;2023-02-23T06:13:38;-23415.78;;;7.82;100.00
29385;BME280;16367;48.736;9.218;2023-02-23T06:15:42;-23415.97;;;7.83;100.00
29385;BME280;16367;48.736;9.218;2023-02-23T06:17:44;-23415.31;;;7.81;100.00
29385;BME280;16367;48.736;9.218;2023-02-23T06:19:47;-23416.75;;;7.85;100.00
29385;BME280;16367;48.736;9.218;2023-02-23T06:21:50;-23414.53;;;7.78;100.00
29385;BME280;16367;48.736;9.218;2023-02-23T06:23:53;-23418.97;;;7.92;100.00
29385;BME280;16367;48.736;9.218;2023-02-23T06:25:56;-23416.91;;;7.86;100.00
29385;BME280;16367;48.736;9.218;2023-02-23T06:28:01;-23417.06;;;7.86;100.00
29385;BME280;16367;48.736;9.218;2023-02-23T06:30:04;-23417.38;;;7.87;100.00
29385;BME280;16367;48.736;9.218;2023-02-23T06:32:07;-23417.84;;;7.89;100.00
29385;BME280;16367;48.736;9.218;2023-02-23T06:34:10;-23418.03;;;7.89;100.00
29385;BME280;16367;48.736;9.218;2023-02-23T06:36:13;-23417.84;;;7.89;100.00
29385;BME280;16367;48.736;9.218;2023-02-23T06:38:15;-23419.13;;;7.93;100.00
29385;BME280;16367;48.736;9.218;2023-02-23T06:40:18;-23416.28;;;7.84;100.00
29385;BME280;16367;48.736;9.218;2023-02-23T06:42:21;-23416.75;;;7.85;100.00
29385;BME280;16367;48.736;9.218;2023-02-23T06:44:26;-23417.06;;;7.86;100.00
29385;BME280;16367;48.736;9.218;2023-02-23T06:46:28;-23418.97;;;7.92;100.00
29385;BME280;16367;48.736;9.218;2023-02-23T06:48:33;-23418.34;;;7.90;100.00
29385;BME280;16367;48.736;9.218;2023-02-23T06:50:36;-23418.66;;;7.91;100.00
29385;BME280;16367;48.736;9.218;2023-02-23T06:52:39;-23417.53;;;7.88;100.00
29385;BME280;16367;48.736;9.218;2023-02-23T06:54:43;-23418.03;;;7.89;100.00
29385;BME280;16367;48.736;9.218;2023-02-23T06:56:45;-23419.75;;;7.95;100.00
29385;BME280;16367;48.736;9.218;2023-02-23T06:58:48;-23420.25;;;7.96;100.00
29385;BME280;16367;48.736;9.218;2023-02-23T07:00:53;-23419.59;;;7.94;100.00
29385;BME280;16367;48.736;9.218;2023-02-23T07:02:57;-23419.94;;;7.95;100.00
29385;BME280;16367;48.736;9.218;2023-02-23T07:05:00;-23420.72;;;7.98;100.00
29385;BME280;16367;48.736;9.218;2023-02-23T07:07:03;-23419.28;;;7.93;100.00
29385;BME280;16367;48.736;9.218;2023-02-23T07:09:06;-23420.88;;;7.98;100.00
29385;BME280;16367;48.736;9.218;2023-02-23T07:11:10;-23421.19;;;7.99;100.00
29385;BME280;16367;48.736;9.218;2023-02-23T07:13:13;-23420.56;;;7.97;100.00
29385;BME280;16367;48.736;9.218;2023-02-23T07:15:17;-23421.81;;;8.01;100.00
29385;BME280;16367;48.736;9.218;2023-02-23T07:17:22;-23420.72;;;7.98;100.00
29385;BME280;16367;48.736;9.218;2023-02-23T07:19:25;-23419.59;;;7.94;100.00
29385;BME280;16367;48.736;9.218;2023-02-23T07:21:27;-23416.09;;;7.83;100.00
29385;BME280;16367;48.736;9.218;2023-02-23T07:23:30;-23420.56;;;7.97;100.00
29385;BME280;16367;48.736;9.218;2023-02-23T07:25:33;-23416.44;;;7.84;100.00
29385;BME280;16367;48.736;9.218;2023-02-23T07:27:36;-23415.78;;;7.82;100.00
29385;BME280;16367;48.736;9.218;2023-02-23T07:29:38;-23416.44;;;7.84;100.00
29385;BME280;16367;48.736;9.218;2023-02-23T07:31:41;-23419.28;;;7.93;100.00
29385;BME280;16367;48.736;9.218;2023-02-23T07:33:45;-23417.38;;;7.87;100.00
29385;BME280;16367;48.736;9.218;2023-02-23T07:35:48;-23420.88;;;7.98;100.00
29385;BME280;16367;48.736;9.218;2023-02-23T07:37:50;-23422.16;;;8.02;100.00
29385;BME280;16367;48.736;9.218;2023-02-23T07:39:54;-23421.50;;;8.00;100.00
29385;BME280;16367;48.736;9.218;2023-02-23T07:41:56;-23421.81;;;8.01;100.00
29385;BME280;16367;48.736;9.218;2023-02-23T07:43:59;-23425.16;;;8.12;100.00
29385;BME280;16367;48.736;9.218;2023-02-23T07:46:02;-23425.00;;;8.11;100.00
29385;BME280;16367;48.736;9.218;2023-02-23T07:48:05;-23429.13;;;8.24;100.00
29385;BME280;16367;48.736;9.218;2023-02-23T07:50:10;-23429.13;;;8.24;100.00
29385;BME280;16367;48.736;9.218;2023-02-23T07:52:16;-23426.59;;;8.16;100.00
29385;BME280;16367;48.736;9.218;2023-02-23T07:54:19;-23429.78;;;8.27;100.00
29385;BME280;16367;48.736;9.218;2023-02-23T07:56:23;-23430.09;;;8.27;100.00
29385;BME280;16367;48.736;9.218;2023-02-23T07:58:26;-23430.09;;;8.27;100.00
29385;BME280;16367;48.736;9.218;2023-02-23T08:00:29;-23438.03;;;8.53;100.00
29385;BME280;16367;48.736;9.218;2023-02-23T08:02:31;-23435.47;;;8.45;100.00
29385;BME280;16367;48.736;9.218;2023-02-23T08:04:34;-23437.72;;;8.52;100.00
29385;BME280;16367;48.736;9.218;2023-02-23T08:06:38;-23439.13;;;8.56;100.00
29385;BME280;16367;48.736;9.218;2023-02-23T08:08:41;-23440.56;;;8.61;100.00
29385;BME280;16367;48.736;9.218;2023-02-23T08:10:44;-23442.78;;;8.68;100.00
29385;BME280;16367;48.736;9.218;2023-02-23T08:12:49;-23441.53;;;8.64;100.00
29385;BME280;16367;48.736;9.218;2023-02-23T08:14:52;-23440.88;;;8.62;100.00
29385;BME280;16367;48.736;9.218;2023-02-23T08:16:55;-23442.63;;;8.67;100.00
29385;BME280;16367;48.736;9.218;2023-02-23T08:18:58;-23445.47;;;8.76;100.00
29385;BME280;16367;48.736;9.218;2023-02-23T08:21:02;-23451.19;;;8.94;100.00
29385;BME280;16367;48.736;9.218;2023-02-23T08:23:06;-23447.88;;;8.84;100.00
29385;BME280;16367;48.736;9.218;2023-02-23T08:25:09;-23443.91;;;8.71;100.00
29385;BME280;16367;48.736;9.218;2023-02-23T08:27:12;-23446.75;;;8.80;100.00
29385;BME280;16367;48.736;9.218;2023-02-23T08:29:15;-23448.66;;;8.86;100.00
29385;BME280;16367;48.736;9.218;2023-02-23T08:31:17;-23449.78;;;8.90;100.00
29385;BME280;16367;48.736;9.218;2023-02-23T08:33:25;-23453.56;;;9.02;100.00
29385;BME280;16367;48.736;9.218;2023-02-23T08:35:28;-23459.59;;;9.21;100.00
29385;BME280;16367;48.736;9.218;2023-02-23T08:37:31;-23457.84;;;9.16;100.00
29385;BME280;16367;48.736;9.218;2023-02-23T08:39:35;-23456.75;;;9.12;100.00
29385;BME280;16367;48.736;9.218;2023-02-23T08:41:39;-23459.59;;;9.21;100.00
29385;BME280;16367;48.736;9.218;2023-02-23T08:43:42;-23460.56;;;9.24;100.00
29385;BME280;16367;48.736;9.218;2023-02-23T08:45:45;-23467.84;;;9.47;100.00
29385;BME280;16367;48.736;9.218;2023-02-23T08:47:47;-23466.91;;;9.44;100.00
29385;BME280;16367;48.736;9.218;2023-02-23T08:49:50;-23470.06;;;9.54;100.00
29385;BME280;16367;48.736;9.218;2023-02-23T08:51:54;-23468.50;;;9.49;100.00
29385;BME280;16367;48.736;9.218;2023-02-23T08:53:57;-23472.28;;;9.61;100.00
29385;BME280;16367;48.736;9.218;2023-02-23T08:56:03;-23470.06;;;9.54;100.00
29385;BME280;16367;48.736;9.218;2023-02-23T08:58:07;-23476.72;;;9.75;100.00
29385;BME280;16367;48.736;9.218;2023-02-23T09:00:10;-23479.44;;;9.84;100.00
29385;BME280;16367;48.736;9.218;2023-02-23T09:02:17;-23476.72;;;9.75;100.00
29385;BME280;16367;48.736;9.218;2023-02-23T09:04:19;-23477.69;;;9.78;100.00
29385;BME280;16367;48.736;9.218;2023-02-23T09:06:23;-23479.91;;;9.86;100.00
29385;BME280;16367;48.736;9.218;2023-02-23T09:08:26;-23469.75;;;9.53;100.00
29385;BME280;16367;48.736;9.218;2023-02-23T09:10:29;-23468.16;;;9.48;100.00
29385;BME280;16367;48.736;9.218;2023-02-23T09:12:33;-23465.94;;;9.41;100.00
29385;BME280;16367;48.736;9.218;2023-02-23T09:14:36;-23471.97;;;9.60;100.00
29385;BME280;16367;48.736;9.218;2023-02-23T09:16:39;-23471.97;;;9.60;100.00
29385;BME280;16367;48.736;9.218;2023-02-23T09:18:42;-23469.44;;;9.52;100.00
29385;BME280;16367;48.736;9.218;2023-02-23T09:20:44;-23471.97;;;9.60;100.00
29385;BME280;16367;48.736;9.218;2023-02-23T09:22:47;-23466.91;;;9.44;100.00
29385;BME280;16367;48.736;9.218;2023-02-23T09:24:50;-23470.69;;;9.56;100.00
29385;BME280;16367;48.736;9.218;2023-02-23T09:26:53;-23467.84;;;9.47;100.00
29385;BME280;16367;48.736;9.218;2023-02-23T09:28:59;-23472.91;;;9.63;100.00
29385;BME280;16367;48.736;9.218;2023-02-23T09:31:06;-23473.72;;;9.66;100.00
29385;BME280;16367;48.736;9.218;2023-02-23T09:33:09;-23475.16;;;9.70;100.00
29385;BME280;16367;48.736;9.218;2023-02-23T09:35:13;-23472.13;;;9.61;100.00
29385;BME280;16367;48.736;9.218;2023-02-23T09:37:18;-23470.38;;;9.55;100.00
29385;BME280;16367;48.736;9.218;2023-02-23T09:39:21;-23473.41;;;9.65;100.00
29385;BME280;16367;48.736;9.218;2023-02-23T09:41:49;-23476.25;;;9.74;100.00
29385;BME280;16367;48.736;9.218;2023-02-23T09:44:01;-23474.34;;;9.68;100.00
29385;BME280;16367;48.736;9.218;2023-02-23T09:46:13;-23481.81;;;9.92;100.00
29385;BME280;16367;48.736;9.218;2023-02-23T09:48:25;-23485.59;;;10.04;100.00
29385;BME280;16367;48.736;9.218;2023-02-23T09:50:30;-23486.56;;;10.07;100.00
29385;BME280;16367;48.736;9.218;2023-02-23T09:52:37;-23484.03;;;9.99;100.00
29385;BME280;16367;48.736;9.218;2023-02-23T09:54:42;-23486.72;;;10.07;100.00
29385;BME280;16367;48.736;9.218;2023-02-23T09:56:47;-23487.50;;;10.10;100.00
29385;BME280;16367;48.736;9.218;2023-02-23T09:58:50;-23491.00;;;10.21;100.00
29385;BME280;16367;48.736;9.218;2023-02-23T10:01:14;-23496.53;;;10.38;100.00
29385;BME280;16367;48.736;9.218;2023-02-23T10:03:23;-23501.47;;;10.54;100.00
29385;BME280;16367;48.736;9.218;2023-02-23T10:05:32;-23505.09;;;10.66;100.00
29385;BME280;16367;48.736;9.218;2023-02-23T10:07:44;-23506.84;;;10.71;100.00
29385;BME280;16367;48.736;9.218;2023-02-23T10:10:00;-23523.94;;;11.25;100.00
29385;BME280;16367;48.736;9.218;2023-02-23T10:12:09;-23527.75;;;11.38;100.00
29385;BME280;16367;48.736;9.218;2023-02-23T10:14:22;-23527.13;;;11.36;100.00
29385;BME280;16367;48.736;9.218;2023-02-23T10:16:37;-23529.66;;;11.44;100.00
29385;BME280;16367;48.736;9.218;2023-02-23T10:18:46;-23528.06;;;11.39;100.00
29385;BME280;16367;48.736;9.218;2023-02-23T10:20:58;-23528.69;;;11.41;100.00
29385;BME280;16367;48.736;9.218;2023-02-23T10:23:07;-23535.34;;;11.62;100.00
29385;BME280;16367;48.736;9.218;2023-02-23T10:25:13;-23526.31;;;11.33;100.00
29385;BME280;16367;48.736;9.218;2023-02-23T10:27:20;-23542.78;;;11.85;100.00
29385;BME280;16367;48.736;9.218;2023-02-23T10:29:27;-23529.97;;;11.45;100.00
29385;BME280;16367;48.736;9.218;2023-02-23T10:31:39;-23520.94;;;11.16;100.00
29385;BME280;16367;48.736;9.218;2023-02-23T10:33:43;-23529.97;;;11.45;100.00
29385;BME280;16367;48.736;9.218;2023-02-23T10:35:45;-23514.75;;;10.96;100.00
29385;BME280;16367;48.736;9.218;2023-02-23T10:37:50;-23514.13;;;10.94;100.00
29385;BME280;16367;48.736;9.218;2023-02-23T10:39:54;-23522.38;;;11.20;100.00
29385;BME280;16367;48.736;9.218;2023-02-23T10:41:58;-23528.22;;;11.39;100.00
29385;BME280;16367;48.736;9.218;2023-02-23T10:44:03;-23525.53;;;11.31;100.00
29385;BME280;16367;48.736;9.218;2023-02-23T10:46:20;-23527.28;;;11.36;100.00
29385;BME280;16367;48.736;9.218;2023-02-23T10:48:31;-23534.38;;;11.59;100.00
29385;BME280;16367;48.736;9.218;2023-02-23T10:50:36;-23530.91;;;11.48;100.00
29385;BME280;16367;48.736;9.218;2023-02-23T10:52:42;-23535.66;;;11.63;100.00
29385;BME280;16367;48.736;9.218;2023-02-23T10:54:48;-23536.28;;;11.65;100.00
29385;BME280;16367;48.736;9.218;2023-02-23T10:56:50;-23540.41;;;11.78;100.00
29385;BME280;16367;48.736;9.218;2023-02-23T10:58:55;-23543.88;;;11.89;98.65
29385;BME280;16367;48.736;9.218;2023-02-23T11:01:00;-23547.22;;;12.00;97.65
29385;BME280;16367;48.736;9.218;2023-02-23T11:03:16;-23560.66;;;12.42;93.81